sensor_id;sensor_type;location;lat;lon;timestamp;temperature;humidity
23371;DHT22;11858;51.056;3.712;2024-01-11T00:01:27;-1.70;99.90
23371;DHT22;11858;51.056;3.712;2024-01-11T00:03:52;-1.80;99.90
23371;DHT22;11858;51.056;3.712;2024-01-11T00:06:18;-1.70;99.90
23371;DHT22;11858;51.056;3.712;2024-01-11T00:08:44;-1.60;99.90
23371;DHT22;11858;51.056;3.712;2024-01-11T00:11:10;-1.70;99.90
23371;DHT22;11858;51.056;3.712;2024-01-11T00:13:36;-1.70;99.90
23371;DHT22;11858;51.056;3.712;2024-01-11T00:16:01;-1.70;99.90
23371;DHT22;11858;51.056;3.712;2024-01-11T00:32:32;-1.90;99.90
23371;DHT22;11858;51.056;3.712;2024-01-11T00:35:02;-1.90;99.90
23371;DHT22;11858;51.056;3.712;2024-01-11T00:37:28;-1.80;99.90
23371;DHT22;11858;51.056;3.712;2024-01-11T00:39:54;-1.80;99.90
23371;DHT22;11858;51.056;3.712;2024-01-11T00:42:19;-1.90;99.90
23371;DHT22;11858;51.056;3.712;2024-01-11T00:44:45;-2.00;99.90
23371;DHT22;11858;51.056;3.712;2024-01-11T00:47:10;-2.00;99.90
23371;DHT22;11858;51.056;3.712;2024-01-11T00:49:36;-2.00;99.90
23371;DHT22;11858;51.056;3.712;2024-01-11T00:52:03;-1.90;99.90
23371;DHT22;11858;51.056;3.712;2024-01-11T00:58:14;-1.90;99.90
23371;DHT22;11858;51.056;3.712;2024-01-11T01:00:40;-1.70;99.90
23371;DHT22;11858;51.056;3.712;2024-01-11T01:03:05;-1.60;99.90
23371;DHT22;11858;51.056;3.712;2024-01-11T01:05:32;-1.80;99.90
23371;DHT22;11858;51.056;3.712;2024-01-11T01:07:57;-1.70;99.90
23371;DHT22;11858;51.056;3.712;2024-01-11T01:10:23;-1.80;99.90
23371;DHT22;11858;51.056;3.712;2024-01-11T01:12:49;-1.90;99.90
23371;DHT22;11858;51.056;3.712;2024-01-11T01:15:14;-1.80;99.90
23371;DHT22;11858;51.056;3.712;2024-01-11T01:17:40;-1.80;99.90
23371;DHT22;11858;51.056;3.712;2024-01-11T01:20:07;-1.70;99.90
23371;DHT22;11858;51.056;3.712;2024-01-11T01:22:32;-1.80;99.90
23371;DHT22;11858;51.056;3.712;2024-01-11T01:24:58;-1.80;99.90
23371;DHT22;11858;51.056;3.712;2024-01-11T01:27:24;-1.90;99.90
23371;DHT22;11858;51.056;3.712;2024-01-11T01:29:49;-2.00;99.90
23371;DHT22;11858;51.056;3.712;2024-01-11T01:32:15;-2.00;99.90
23371;DHT22;11858;51.056;3.712;2024-01-11T01:34:41;-1.90;99.90
23371;DHT22;11858;51.056;3.712;2024-01-11T01:37:06;-1.70;99.90
23371;DHT22;11858;51.056;3.712;2024-01-11T01:39:32;-1.80;99.90
23371;DHT22;11858;51.056;3.712;2024-01-11T01:41:58;-1.80;99.90
23371;DHT22;11858;51.056;3.712;2024-01-11T01:44:23;-2.00;99.90
23371;DHT22;11858;51.056;3.712;2024-01-11T01:46:51;-2.00;99.90
23371;DHT22;11858;51.056;3.712;2024-01-11T01:49:16;-2.10;99.90
23371;DHT22;11858;51.056;3.712;2024-01-11T01:51:47;-2.10;99.90
23371;DHT22;11858;51.056;3.712;2024-01-11T01:54:13;-2.10;99.90
23371;DHT22;11858;51.056;3.712;2024-01-11T01:56:38;-2.20;99.90
23371;DHT22;11858;51.056;3.712;2024-01-11T01:59:05;-2.20;99.90
23371;DHT22;11858;51.056;3.712;2024-01-11T02:01:31;-2.30;99.90
23371;DHT22;11858;51.056;3.712;2024-01-11T02:03:58;-2.20;99.90
23371;DHT22;11858;51.056;3.712;2024-01-11T02:06:25;-2.30;99.90
23371;DHT22;11858;51.056;3.712;2024-01-11T02:08:52;-2.40;99.90
23371;DHT22;11858;51.056;3.712;2024-01-11T02:11:20;-2.30;99.90
23371;DHT22;11858;51.056;3.712;2024-01-11T02:13:47;-2.30;99.90
23371;DHT22;11858;51.056;3.712;2024-01-11T02:16:13;-2.30;99.90
23371;DHT22;11858;51.056;3.712;2024-01-11T02:18:39;-2.30;99.90
23371;DHT22;11858;51.056;3.712;2024-01-11T02:21:08;-2.50;99.90
23371;DHT22;11858;51.056;3.712;2024-01-11T02:23:39;-2.50;99.90
23371;DHT22;11858;51.056;3.712;2024-01-11T02:26:06;-2.50;99.90
23371;DHT22;11858;51.056;3.712;2024-01-11T02:28:32;-2.50;99.90
23371;DHT22;11858;51.056;3.712;2024-01-11T02:30:58;-2.50;99.90
23371;DHT22;11858;51.056;3.712;2024-01-11T02:33:23;-2.50;99.90
23371;DHT22;11858;51.056;3.712;2024-01-11T02:35:49;-2.50;99.90
23371;DHT22;11858;51.056;3.712;2024-01-11T02:38:16;-2.40;99.90
23371;DHT22;11858;51.056;3.712;2024-01-11T02:40:43;-2.30;99.90
23371;DHT22;11858;51.056;3.712;2024-01-11T02:43:09;-2.30;99.90
23371;DHT22;11858;51.056;3.712;2024-01-11T02:45:36;-2.40;99.90
23371;DHT22;11858;51.056;3.712;2024-01-11T02:48:02;-2.50;99.90
23371;DHT22;11858;51.056;3.712;2024-01-11T02:50:27;-2.40;99.90
23371;DHT22;11858;51.056;3.712;2024-01-11T02:52:53;-2.50;99.90
23371;DHT22;11858;51.056;3.712;2024-01-11T02:55:19;-2.50;99.90
23371;DHT22;11858;51.056;3.712;2024-01-11T02:57:44;-2.50;99.90
23371;DHT22;11858;51.056;3.712;2024-01-11T03:00:10;-2.40;99.90
23371;DHT22;11858;51.056;3.712;2024-01-11T03:02:37;-2.50;99.90
23371;DHT22;11858;51.056;3.712;2024-01-11T03:05:03;-2.50;99.90
23371;DHT22;11858;51.056;3.712;2024-01-11T03:07:29;-2.60;99.90
23371;DHT22;11858;51.056;3.712;2024-01-11T03:09:56;-2.60;99.90
23371;DHT22;11858;51.056;3.712;2024-01-11T03:12:21;-2.70;99.90
23371;DHT22;11858;51.056;3.712;2024-01-11T03:14:48;-2.70;99.90
23371;DHT22;11858;51.056;3.712;2024-01-11T03:17:13;-2.50;99.90
23371;DHT22;11858;51.056;3.712;2024-01-11T03:19:40;-2.40;99.90
23371;DHT22;11858;51.056;3.712;2024-01-11T03:22:06;-2.40;99.90
23371;DHT22;11858;51.056;3.712;2024-01-11T03:24:32;-2.40;99.90
23371;DHT22;11858;51.056;3.712;2024-01-11T03:26:58;-2.50;99.90
23371;DHT22;11858;51.056;3.712;2024-01-11T03:29:24;-2.60;99.90
23371;DHT22;11858;51.056;3.712;2024-01-11T03:31:49;-2.60;99.90
23371;DHT22;11858;51.056;3.712;2024-01-11T03:34:15;-2.40;99.90
23371;DHT22;11858;51.056;3.712;2024-01-11T03:36:41;-2.60;99.90
23371;DHT22;11858;51.056;3.712;2024-01-11T03:39:06;-2.60;99.90
23371;DHT22;11858;51.056;3.712;2024-01-11T03:41:32;-2.70;99.90
23371;DHT22;11858;51.056;3.712;2024-01-11T03:43:58;-2.70;99.90
23371;DHT22;11858;51.056;3.712;2024-01-11T03:46:23;-2.70;99.90
23371;DHT22;11858;51.056;3.712;2024-01-11T03:48:49;-2.80;99.90
23371;DHT22;11858;51.056;3.712;2024-01-11T03:51:15;-2.70;99.90
23371;DHT22;11858;51.056;3.712;2024-01-11T03:53:40;-2.70;99.90
23371;DHT22;11858;51.056;3.712;2024-01-11T03:56:06;-2.70;99.90
23371;DHT22;11858;51.056;3.712;2024-01-11T03:58:32;-2.70;99.90
23371;DHT22;11858;51.056;3.712;2024-01-11T04:00:58;-2.80;99.90
23371;DHT22;11858;51.056;3.712;2024-01-11T04:03:23;-2.90;99.90
23371;DHT22;11858;51.056;3.712;2024-01-11T04:05:49;-2.90;99.90
23371;DHT22;11858;51.056;3.712;2024-01-11T04:08:15;-2.90;99.90
23371;DHT22;11858;51.056;3.712;2024-01-11T04:10:40;-2.90;99.90
23371;DHT22;11858;51.056;3.712;2024-01-11T04:13:09;-2.90;99.90
23371;DHT22;11858;51.056;3.712;2024-01-11T04:15:34;-2.90;99.90
23371;DHT22;11858;51.056;3.712;2024-01-11T04:18:00;-2.90;99.90
23371;DHT22;11858;51.056;3.712;2024-01-11T04:20:26;-2.90;99.90
23371;DHT22;11858;51.056;3.712;2024-01-11T04:22:51;-2.90;99.90
23371;DHT22;11858;51.056;3.712;2024-01-11T04:25:17;-2.90;99.90
23371;DHT22;11858;51.056;3.712;2024-01-11T04:27:42;-3.00;99.90
23371;DHT22;11858;51.056;3.712;2024-01-11T04:30:08;-3.00;99.90
23371;DHT22;11858;51.056;3.712;2024-01-11T04:32:34;-3.00;99.90
23371;DHT22;11858;51.056;3.712;2024-01-11T04:35:00;-2.90;99.90
23371;DHT22;11858;51.056;3.712;2024-01-11T04:37:25;-2.90;99.90
23371;DHT22;11858;51.056;3.712;2024-01-11T04:39:51;-2.80;99.90
23371;DHT22;11858;51.056;3.712;2024-01-11T04:42:16;-2.70;99.90
23371;DHT22;11858;51.056;3.712;2024-01-11T04:44:42;-2.80;99.90
23371;DHT22;11858;51.056;3.712;2024-01-11T04:47:08;-2.60;99.90
23371;DHT22;11858;51.056;3.712;2024-01-11T04:49:34;-2.60;99.90
23371;DHT22;11858;51.056;3.712;2024-01-11T04:51:59;-2.60;99.90
23371;DHT22;11858;51.056;3.712;2024-01-11T04:54:25;-2.50;99.90
23371;DHT22;11858;51.056;3.712;2024-01-11T04:56:50;-2.50;99.90
23371;DHT22;11858;51.056;3.712;2024-01-11T04:59:16;-2.50;99.90
23371;DHT22;11858;51.056;3.712;2024-01-11T05:01:42;-2.40;99.90
23371;DHT22;11858;51.056;3.712;2024-01-11T05:04:08;-2.50;99.90
23371;DHT22;11858;51.056;3.712;2024-01-11T05:06:34;-2.50;99.90
23371;DHT22;11858;51.056;3.712;2024-01-11T05:08:59;-2.60;99.90
23371;DHT22;11858;51.056;3.712;2024-01-11T05:11:25;-2.60;99.90
23371;DHT22;11858;51.056;3.712;2024-01-11T05:13:52;-2.60;99.90
23371;DHT22;11858;51.056;3.712;2024-01-11T05:16:26;-2.70;99.90
23371;DHT22;11858;51.056;3.712;2024-01-11T05:18:52;-2.70;99.90
23371;DHT22;11858;51.056;3.712;2024-01-11T05:21:18;-2.70;99.90
23371;DHT22;11858;51.056;3.712;2024-01-11T05:23:45;-2.80;99.90
23371;DHT22;11858;51.056;3.712;2024-01-11T05:26:11;-2.80;99.90
23371;DHT22;11858;51.056;3.712;2024-01-11T05:28:37;-2.80;99.90
23371;DHT22;11858;51.056;3.712;2024-01-11T05:31:08;-2.80;99.90
23371;DHT22;11858;51.056;3.712;2024-01-11T05:33:34;-2.80;99.90
23371;DHT22;11858;51.056;3.712;2024-01-11T05:35:59;-2.80;99.90
23371;DHT22;11858;51.056;3.712;2024-01-11T05:38:25;-2.80;99.90
23371;DHT22;11858;51.056;3.712;2024-01-11T05:40:50;-2.80;99.90
23371;DHT22;11858;51.056;3.712;2024-01-11T05:43:16;-2.80;99.90
23371;DHT22;11858;51.056;3.712;2024-01-11T05:45:42;-2.80;99.90
23371;DHT22;11858;51.056;3.712;2024-01-11T05:48:07;-2.90;99.90
23371;DHT22;11858;51.056;3.712;2024-01-11T05:50:33;-2.80;99.90
23371;DHT22;11858;51.056;3.712;2024-01-11T05:52:58;-2.70;99.90
23371;DHT22;11858;51.056;3.712;2024-01-11T05:55:24;-2.60;99.90
23371;DHT22;11858;51.056;3.712;2024-01-11T05:57:50;-2.50;99.90
23371;DHT22;11858;51.056;3.712;2024-01-11T06:00:15;-2.40;99.90
23371;DHT22;11858;51.056;3.712;2024-01-11T06:02:41;-2.40;99.90
23371;DHT22;11858;51.056;3.712;2024-01-11T06:05:10;-2.40;99.90
23371;DHT22;11858;51.056;3.712;2024-01-11T06:07:37;-2.40;99.90
23371;DHT22;11858;51.056;3.712;2024-01-11T06:10:04;-2.50;99.90
23371;DHT22;11858;51.056;3.712;2024-01-11T06:12:31;-2.40;99.90
23371;DHT22;11858;51.056;3.712;2024-01-11T06:14:57;-2.30;99.90
23371;DHT22;11858;51.056;3.712;2024-01-11T06:17:23;-2.30;99.90
23371;DHT22;11858;51.056;3.712;2024-01-11T06:19:49;-2.20;99.90
23371;DHT22;11858;51.056;3.712;2024-01-11T06:22:15;-2.00;99.90
23371;DHT22;11858;51.056;3.712;2024-01-11T06:24:40;-2.00;99.90
23371;DHT22;11858;51.056;3.712;2024-01-11T06:27:06;-2.10;99.90
23371;DHT22;11858;51.056;3.712;2024-01-11T06:29:32;-2.10;99.90
23371;DHT22;11858;51.056;3.712;2024-01-11T06:31:57;-2.10;99.90
23371;DHT22;11858;51.056;3.712;2024-01-11T06:34:23;-2.10;99.90
23371;DHT22;11858;51.056;3.712;2024-01-11T06:36:48;-2.20;99.90
23371;DHT22;11858;51.056;3.712;2024-01-11T06:39:14;-2.20;99.90
23371;DHT22;11858;51.056;3.712;2024-01-11T06:41:40;-2.20;99.90
23371;DHT22;11858;51.056;3.712;2024-01-11T06:44:05;-2.30;99.90
23371;DHT22;11858;51.056;3.712;2024-01-11T06:46:31;-2.20;99.90
23371;DHT22;11858;51.056;3.712;2024-01-11T06:48:57;-2.40;99.90
23371;DHT22;11858;51.056;3.712;2024-01-11T06:51:23;-2.40;99.90
23371;DHT22;11858;51.056;3.712;2024-01-11T06:53:49;-2.30;99.90
23371;DHT22;11858;51.056;3.712;2024-01-11T06:56:15;-2.30;99.90
23371;DHT22;11858;51.056;3.712;2024-01-11T06:58:42;-2.40;99.90
23371;DHT22;11858;51.056;3.712;2024-01-11T07:01:08;-2.40;99.90
23371;DHT22;11858;51.056;3.712;2024-01-11T07:03:34;-2.40;99.90
23371;DHT22;11858;51.056;3.712;2024-01-11T07:05:59;-2.40;99.90
23371;DHT22;11858;51.056;3.712;2024-01-11T07:08:25;-2.40;99.90
23371;DHT22;11858;51.056;3.712;2024-01-11T07:10:51;-2.50;99.90
23371;DHT22;11858;51.056;3.712;2024-01-11T07:13:16;-2.40;99.90
23371;DHT22;11858;51.056;3.712;2024-01-11T07:15:43;-2.50;99.90
23371;DHT22;11858;51.056;3.712;2024-01-11T07:18:09;-2.50;99.90
23371;DHT22;11858;51.056;3.712;2024-01-11T07:20:34;-2.40;99.90
23371;DHT22;11858;51.056;3.712;2024-01-11T07:23:00;-2.50;99.90
23371;DHT22;11858;51.056;3.712;2024-01-11T07:25:26;-2.50;99.90
23371;DHT22;11858;51.056;3.712;2024-01-11T07:27:52;-2.40;99.90
23371;DHT22;11858;51.056;3.712;2024-01-11T07:30:17;-2.20;99.90
23371;DHT22;11858;51.056;3.712;2024-01-11T07:32:46;-2.20;99.90
23371;DHT22;11858;51.056;3.712;2024-01-11T07:35:11;-2.40;99.90
23371;DHT22;11858;51.056;3.712;2024-01-11T07:37:38;-2.50;99.90
23371;DHT22;11858;51.056;3.712;2024-01-11T07:40:05;-2.60;99.90
23371;DHT22;11858;51.056;3.712;2024-01-11T07:42:35;-2.50;99.90
23371;DHT22;11858;51.056;3.712;2024-01-11T07:45:01;-2.50;99.90
23371;DHT22;11858;51.056;3.712;2024-01-11T07:47:27;-2.40;99.90
23371;DHT22;11858;51.056;3.712;2024-01-11T07:49:52;-2.50;99.90
23371;DHT22;11858;51.056;3.712;2024-01-11T07:52:18;-2.60;99.90
23371;DHT22;11858;51.056;3.712;2024-01-11T07:54:43;-2.40;99.90
23371;DHT22;11858;51.056;3.712;2024-01-11T07:57:09;-2.50;99.90
23371;DHT22;11858;51.056;3.712;2024-01-11T07:59:35;-2.40;99.90
23371;DHT22;11858;51.056;3.712;2024-01-11T08:02:02;-2.30;99.90
23371;DHT22;11858;51.056;3.712;2024-01-11T08:04:27;-2.30;99.90
23371;DHT22;11858;51.056;3.712;2024-01-11T08:06:53;-2.40;99.90
23371;DHT22;11858;51.056;3.712;2024-01-11T08:09:18;-2.40;99.90
23371;DHT22;11858;51.056;3.712;2024-01-11T08:11:44;-2.20;99.90
23371;DHT22;11858;51.056;3.712;2024-01-11T08:14:11;-2.20;99.90
23371;DHT22;11858;51.056;3.712;2024-01-11T08:16:37;-2.20;99.90
23371;DHT22;11858;51.056;3.712;2024-01-11T08:19:03;-2.20;99.90
23371;DHT22;11858;51.056;3.712;2024-01-11T08:21:29;-2.20;99.90
23371;DHT22;11858;51.056;3.712;2024-01-11T08:23:54;-2.20;99.90
23371;DHT22;11858;51.056;3.712;2024-01-11T08:26:20;-2.30;99.90
23371;DHT22;11858;51.056;3.712;2024-01-11T08:28:47;-2.20;99.90
23371;DHT22;11858;51.056;3.712;2024-01-11T08:31:13;-2.20;99.90
23371;DHT22;11858;51.056;3.712;2024-01-11T08:33:39;-2.10;99.90
23371;DHT22;11858;51.056;3.712;2024-01-11T08:36:05;-2.20;99.90
23371;DHT22;11858;51.056;3.712;2024-01-11T08:38:32;-2.20;99.90
23371;DHT22;11858;51.056;3.712;2024-01-11T08:40:58;-2.10;99.90
23371;DHT22;11858;51.056;3.712;2024-01-11T08:43:25;-2.00;99.90
23371;DHT22;11858;51.056;3.712;2024-01-11T08:45:51;-2.00;99.90
23371;DHT22;11858;51.056;3.712;2024-01-11T08:48:17;-2.00;99.90
23371;DHT22;11858;51.056;3.712;2024-01-11T08:50:42;-2.10;99.90
23371;DHT22;11858;51.056;3.712;2024-01-11T08:53:08;-2.00;99.90
23371;DHT22;11858;51.056;3.712;2024-01-11T08:55:34;-1.80;99.90
23371;DHT22;11858;51.056;3.712;2024-01-11T08:57:59;-1.90;99.90
23371;DHT22;11858;51.056;3.712;2024-01-11T09:00:26;-1.90;99.90
23371;DHT22;11858;51.056;3.712;2024-01-11T09:02:52;-1.90;99.90
23371;DHT22;11858;51.056;3.712;2024-01-11T09:05:17;-1.90;99.90
23371;DHT22;11858;51.056;3.712;2024-01-11T09:07:43;-1.90;99.90
23371;DHT22;11858;51.056;3.712;2024-01-11T09:10:10;-1.90;99.90
23371;DHT22;11858;51.056;3.712;2024-01-11T09:12:39;-1.90;99.90
23371;DHT22;11858;51.056;3.712;2024-01-11T09:15:04;-1.90;99.90
23371;DHT22;11858;51.056;3.712;2024-01-11T09:17:30;-1.90;99.90
23371;DHT22;11858;51.056;3.712;2024-01-11T09:19:56;-1.80;99.90
23371;DHT22;11858;51.056;3.712;2024-01-11T09:22:22;-1.80;99.90
23371;DHT22;11858;51.056;3.712;2024-01-11T09:24:47;-1.80;99.90
23371;DHT22;11858;51.056;3.712;2024-01-11T09:27:13;-1.70;99.90
23371;DHT22;11858;51.056;3.712;2024-01-11T09:29:45;-1.70;99.90
23371;DHT22;11858;51.056;3.712;2024-01-11T09:32:12;-1.60;99.90
23371;DHT22;11858;51.056;3.712;2024-01-11T09:34:38;-1.50;99.90
23371;DHT22;11858;51.056;3.712;2024-01-11T09:37:03;-1.50;99.90
23371;DHT22;11858;51.056;3.712;2024-01-11T09:39:29;-1.50;99.90
23371;DHT22;11858;51.056;3.712;2024-01-11T09:41:59;-1.40;99.90
23371;DHT22;11858;51.056;3.712;2024-01-11T09:44:30;-1.30;99.90
23371;DHT22;11858;51.056;3.712;2024-01-11T09:46:57;-1.30;99.90
23371;DHT22;11858;51.056;3.712;2024-01-11T09:49:24;-1.20;99.90
23371;DHT22;11858;51.056;3.712;2024-01-11T09:51:51;-1.20;99.90
23371;DHT22;11858;51.056;3.712;2024-01-11T09:54:19;-1.10;99.90
23371;DHT22;11858;51.056;3.712;2024-01-11T09:56:46;-0.80;99.90
23371;DHT22;11858;51.056;3.712;2024-01-11T09:59:16;0.60;99.90
23371;DHT22;11858;51.056;3.712;2024-01-11T10:01:44;3.40;99.90
23371;DHT22;11858;51.056;3.712;2024-01-11T10:04:09;5.50;99.90
23371;DHT22;11858;51.056;3.712;2024-01-11T10:06:38;5.60;99.90
23371;DHT22;11858;51.056;3.712;2024-01-11T10:09:04;4.90;99.90
23371;DHT22;11858;51.056;3.712;2024-01-11T10:11:30;4.50;99.90
23371;DHT22;11858;51.056;3.712;2024-01-11T10:13:57;5.90;99.90
23371;DHT22;11858;51.056;3.712;2024-01-11T10:16:23;6.80;99.90
23371;DHT22;11858;51.056;3.712;2024-01-11T10:18:51;8.00;99.90
23371;DHT22;11858;51.056;3.712;2024-01-11T10:21:19;8.60;99.90
23371;DHT22;11858;51.056;3.712;2024-01-11T10:23:44;8.60;99.90
23371;DHT22;11858;51.056;3.712;2024-01-11T10:26:10;9.10;99.90
23371;DHT22;11858;51.056;3.712;2024-01-11T10:28:36;9.60;99.90
23371;DHT22;11858;51.056;3.712;2024-01-11T10:31:03;9.90;99.90
23371;DHT22;11858;51.056;3.712;2024-01-11T10:33:33;9.70;99.90
23371;DHT22;11858;51.056;3.712;2024-01-11T10:36:00;10.40;99.90
23371;DHT22;11858;51.056;3.712;2024-01-11T10:38:26;10.00;99.90
23371;DHT22;11858;51.056;3.712;2024-01-11T10:40:55;10.00;99.90
23371;DHT22;11858;51.056;3.712;2024-01-11T10:43:22;10.00;99.90
23371;DHT22;11858;51.056;3.712;2024-01-11T10:45:51;10.20;99.90
23371;DHT22;11858;51.056;3.712;2024-01-11T10:48:21;10.80;99.90
23371;DHT22;11858;51.056;3.712;2024-01-11T10:50:54;10.70;99.90
23371;DHT22;11858;51.056;3.712;2024-01-11T10:53:25;10.70;99.90
23371;DHT22;11858;51.056;3.712;2024-01-11T10:55:54;10.70;99.90
23371;DHT22;11858;51.056;3.712;2024-01-11T10:58:22;10.60;99.90
23371;DHT22;11858;51.056;3.712;2024-01-11T11:00:50;11.10;99.90
23371;DHT22;11858;51.056;3.712;2024-01-11T11:03:18;11.10;99.90
23371;DHT22;11858;51.056;3.712;2024-01-11T11:05:45;10.60;99.90
23371;DHT22;11858;51.056;3.712;2024-01-11T11:08:14;9.80;99.90
23371;DHT22;11858;51.056;3.712;2024-01-11T11:10:40;10.00;99.90
23371;DHT22;11858;51.056;3.712;2024-01-11T11:13:08;10.40;99.90
23371;DHT22;11858;51.056;3.712;2024-01-11T11:15:35;11.00;99.90
23371;DHT22;11858;51.056;3.712;2024-01-11T11:18:03;10.90;99.90
23371;DHT22;11858;51.056;3.712;2024-01-11T11:20:32;11.40;99.90
23371;DHT22;11858;51.056;3.712;2024-01-11T11:23:07;11.30;99.90
23371;DHT22;11858;51.056;3.712;2024-01-11T11:25:35;11.10;99.90
23371;DHT22;11858;51.056;3.712;2024-01-11T11:28:01;11.40;99.90
23371;DHT22;11858;51.056;3.712;2024-01-11T11:30:30;11.20;99.90
23371;DHT22;11858;51.056;3.712;2024-01-11T11:32:55;11.40;99.90
23371;DHT22;11858;51.056;3.712;2024-01-11T11:35:25;11.20;99.90
23371;DHT22;11858;51.056;3.712;2024-01-11T11:37:56;11.50;99.90
23371;DHT22;11858;51.056;3.712;2024-01-11T11:40:32;11.60;99.90
23371;DHT22;11858;51.056;3.712;2024-01-11T11:43:01;11.70;99.90
23371;DHT22;11858;51.056;3.712;2024-01-11T11:45:27;11.80;99.90
23371;DHT22;11858;51.056;3.712;2024-01-11T11:47:53;11.60;99.90
23371;DHT22;11858;51.056;3.712;2024-01-11T11:50:22;11.70;99.90
23371;DHT22;11858;51.056;3.712;2024-01-11T11:52:56;12.20;99.90
23371;DHT22;11858;51.056;3.712;2024-01-11T11:55:25;12.20;99.90
23371;DHT22;11858;51.056;3.712;2024-01-11T11:57:52;12.50;99.90
23371;DHT22;11858;51.056;3.712;2024-01-11T12:00:21;12.70;99.90
23371;DHT22;11858;51.056;3.712;2024-01-11T12:02:47;12.90;99.90
23371;DHT22;11858;51.056;3.712;2024-01-11T12:05:14;12.40;99.90
23371;DHT22;11858;51.056;3.712;2024-01-11T12:07:39;12.30;99.90
23371;DHT22;11858;51.056;3.712;2024-01-11T12:10:06;12.60;99.90
23371;DHT22;11858;51.056;3.712;2024-01-11T12:12:33;12.80;99.90
23371;DHT22;11858;51.056;3.712;2024-01-11T12:14:59;13.20;99.90
23371;DHT22;11858;51.056;3.712;2024-01-11T12:17:25;13.50;99.90
23371;DHT22;11858;51.056;3.712;2024-01-11T12:19:53;12.80;99.90
23371;DHT22;11858;51.056;3.712;2024-01-11T12:22:19;12.60;99.90
23371;DHT22;11858;51.056;3.712;2024-01-11T12:24:46;12.40;99.90
23371;DHT22;11858;51.056;3.712;2024-01-11T12:27:12;12.80;99.90
23371;DHT22;11858;51.056;3.712;2024-01-11T12:29:40;13.10;99.90
23371;DHT22;11858;51.056;3.712;2024-01-11T12:32:08;12.60;99.90
23371;DHT22;11858;51.056;3.712;2024-01-11T12:34:36;12.90;99.90
23371;DHT22;11858;51.056;3.712;2024-01-11T12:37:02;13.20;99.90
23371;DHT22;11858;51.056;3.712;2024-01-11T12:39:30;13.30;99.90
23371;DHT22;11858;51.056;3.712;2024-01-11T12:41:56;12.70;99.90
23371;DHT22;11858;51.056;3.712;2024-01-11T12:44:23;13.10;99.90
23371;DHT22;11858;51.056;3.712;2024-01-11T12:46:50;12.80;99.90
23371;DHT22;11858;51.056;3.712;2024-01-11T12:49:16;12.70;99.90
23371;DHT22;11858;51.056;3.712;2024-01-11T12:51:42;12.50;99.90
23371;DHT22;11858;51.056;3.712;2024-01-11T12:54:12;12.50;99.90
23371;DHT22;11858;51.056;3.712;2024-01-11T12:56:44;12.60;99.90
23371;DHT22;11858;51.056;3.712;2024-01-11T12:59:10;12.40;99.90
23371;DHT22;11858;51.056;3.712;2024-01-11T13:01:40;12.70;99.90
23371;DHT22;11858;51.056;3.712;2024-01-11T13:04:07;12.70;99.90
23371;DHT22;11858;51.056;3.712;2024-01-11T13:06:33;12.90;99.90
23371;DHT22;11858;51.056;3.712;2024-01-11T13:09:00;13.10;99.90
23371;DHT22;11858;51.056;3.712;2024-01-11T13:11:26;12.60;99.90
23371;DHT22;11858;51.056;3.712;2024-01-11T13:13:53;12.30;99.90
23371;DHT22;11858;51.056;3.712;2024-01-11T13:16:18;12.80;99.90
23371;DHT22;11858;51.056;3.712;2024-01-11T13:18:45;12.90;99.90
23371;DHT22;11858;51.056;3.712;2024-01-11T13:21:11;12.50;99.90
23371;DHT22;11858;51.056;3.712;2024-01-11T13:23:39;12.80;99.90
23371;DHT22;11858;51.056;3.712;2024-01-11T13:26:06;12.60;99.90
23371;DHT22;11858;51.056;3.712;2024-01-11T13:28:35;12.30;99.90
23371;DHT22;11858;51.056;3.712;2024-01-11T13:31:01;11.90;99.90
23371;DHT22;11858;51.056;3.712;2024-01-11T13:33:27;11.90;99.90
23371;DHT22;11858;51.056;3.712;2024-01-11T13:35:54;11.70;99.90
23371;DHT22;11858;51.056;3.712;2024-01-11T13:38:19;11.70;99.90
23371;DHT22;11858;51.056;3.712;2024-01-11T13:40:45;11.60;99.90
23371;DHT22;11858;51.056;3.712;2024-01-11T13:43:11;11.40;99.90
23371;DHT22;11858;51.056;3.712;2024-01-11T13:45:37;11.50;99.90
23371;DHT22;11858;51.056;3.712;2024-01-11T13:48:03;11.20;99.90
23371;DHT22;11858;51.056;3.712;2024-01-11T13:50:29;10.90;99.90
23371;DHT22;11858;51.056;3.712;2024-01-11T13:52:55;11.60;99.90
23371;DHT22;11858;51.056;3.712;2024-01-11T13:55:21;11.60;99.90
23371;DHT22;11858;51.056;3.712;2024-01-11T13:57:47;11.60;99.90
23371;DHT22;11858;51.056;3.712;2024-01-11T14:00:14;12.00;99.90
23371;DHT22;11858;51.056;3.712;2024-01-11T14:02:40;11.40;99.90
23371;DHT22;11858;51.056;3.712;2024-01-11T14:05:07;11.10;99.90
23371;DHT22;11858;51.056;3.712;2024-01-11T14:07:37;11.20;99.90
23371;DHT22;11858;51.056;3.712;2024-01-11T14:10:03;11.00;99.90
23371;DHT22;11858;51.056;3.712;2024-01-11T14:12:29;9.40;99.90
23371;DHT22;11858;51.056;3.712;2024-01-11T14:14:54;8.70;99.90
23371;DHT22;11858;51.056;3.712;2024-01-11T14:17:20;7.50;99.90
23371;DHT22;11858;51.056;3.712;2024-01-11T14:19:46;6.90;99.90
23371;DHT22;11858;51.056;3.712;2024-01-11T14:22:11;6.60;99.90
23371;DHT22;11858;51.056;3.712;2024-01-11T14:24:37;6.10;99.90
23371;DHT22;11858;51.056;3.712;2024-01-11T14:27:03;5.80;99.90
23371;DHT22;11858;51.056;3.712;2024-01-11T14:29:29;5.50;99.90
23371;DHT22;11858;51.056;3.712;2024-01-11T14:31:55;5.30;99.90
23371;DHT22;11858;51.056;3.712;2024-01-11T14:34:21;5.40;99.90
23371;DHT22;11858;51.056;3.712;2024-01-11T14:36:46;5.60;99.90
23371;DHT22;11858;51.056;3.712;2024-01-11T14:39:12;5.80;99.90
23371;DHT22;11858;51.056;3.712;2024-01-11T14:41:37;5.70;99.90
23371;DHT22;11858;51.056;3.712;2024-01-11T14:44:03;5.80;99.90
23371;DHT22;11858;51.056;3.712;2024-01-11T14:46:29;5.70;99.90
23371;DHT22;11858;51.056;3.712;2024-01-11T14:48:55;5.40;99.90
23371;DHT22;11858;51.056;3.712;2024-01-11T14:51:21;5.50;99.90
23371;DHT22;11858;51.056;3.712;2024-01-11T14:53:46;5.40;99.90
23371;DHT22;11858;51.056;3.712;2024-01-11T14:56:12;5.20;99.90
23371;DHT22;11858;51.056;3.712;2024-01-11T14:58:38;5.20;99.90
23371;DHT22;11858;51.056;3.712;2024-01-11T15:01:04;5.10;99.90
23371;DHT22;11858;51.056;3.712;2024-01-11T15:03:30;5.10;99.90
23371;DHT22;11858;51.056;3.712;2024-01-11T15:05:55;5.10;99.90
23371;DHT22;11858;51.056;3.712;2024-01-11T15:08:21;4.90;99.90
23371;DHT22;11858;51.056;3.712;2024-01-11T15:10:48;4.90;99.90
23371;DHT22;11858;51.056;3.712;2024-01-11T15:13:14;5.20;99.90
23371;DHT22;11858;51.056;3.712;2024-01-11T15:15:40;5.00;99.90
23371;DHT22;11858;51.056;3.712;2024-01-11T15:18:06;5.10;99.90
23371;DHT22;11858;51.056;3.712;2024-01-11T15:20:32;4.80;99.90
23371;DHT22;11858;51.056;3.712;2024-01-11T15:22:57;4.80;99.90
23371;DHT22;11858;51.056;3.712;2024-01-11T15:25:23;4.80;99.90
23371;DHT22;11858;51.056;3.712;2024-01-11T15:27:50;4.60;99.90
23371;DHT22;11858;51.056;3.712;2024-01-11T15:30:16;4.70;99.90
23371;DHT22;11858;51.056;3.712;2024-01-11T15:32:43;4.80;99.90
23371;DHT22;11858;51.056;3.712;2024-01-11T15:35:08;4.50;99.90
23371;DHT22;11858;51.056;3.712;2024-01-11T15:37:34;4.50;99.90
23371;DHT22;11858;51.056;3.712;2024-01-11T15:40:00;4.40;99.90
23371;DHT22;11858;51.056;3.712;2024-01-11T15:42:27;4.50;99.90
23371;DHT22;11858;51.056;3.712;2024-01-11T15:44:53;4.50;99.90